sensor_id;sensor_type;location;lat;lon;timestamp;P1;durP1;ratioP1;P2;durP2;ratioP2
79036;SDS011;68434;59.896;30.474;2023-05-10T00:00:14;16.10;;;10.18;;
79036;SDS011;68434;59.896;30.474;2023-05-10T00:02:42;13.27;;;9.48;;
79036;SDS011;68434;59.896;30.474;2023-05-10T00:05:10;19.50;;;8.70;;
79036;SDS011;68434;59.896;30.474;2023-05-10T00:07:38;21.17;;;9.52;;
79036;SDS011;68434;59.896;30.474;2023-05-10T00:10:05;14.88;;;8.52;;
79036;SDS011;68434;59.896;30.474;2023-05-10T00:12:33;18.42;;;8.95;;
79036;SDS011;68434;59.896;30.474;2023-05-10T00:15:03;17.88;;;9.45;;
79036;SDS011;68434;59.896;30.474;2023-05-10T00:17:33;17.92;;;9.80;;
79036;SDS011;68434;59.896;30.474;2023-05-10T00:20:00;18.23;;;8.98;;
79036;SDS011;68434;59.896;30.474;2023-05-10T00:22:30;17.40;;;9.73;;
79036;SDS011;68434;59.896;30.474;2023-05-10T00:24:58;20.42;;;9.63;;
79036;SDS011;68434;59.896;30.474;2023-05-10T00:27:26;21.10;;;9.55;;
79036;SDS011;68434;59.896;30.474;2023-05-10T00:29:53;18.67;;;9.00;;
79036;SDS011;68434;59.896;30.474;2023-05-10T00:32:22;19.70;;;9.50;;
79036;SDS011;68434;59.896;30.474;2023-05-10T00:34:49;17.92;;;8.73;;
79036;SDS011;68434;59.896;30.474;2023-05-10T00:37:17;16.95;;;8.77;;
79036;SDS011;68434;59.896;30.474;2023-05-10T00:39:45;15.30;;;8.88;;
79036;SDS011;68434;59.896;30.474;2023-05-10T00:42:12;15.80;;;7.95;;
79036;SDS011;68434;59.896;30.474;2023-05-10T00:44:40;17.40;;;7.20;;
79036;SDS011;68434;59.896;30.474;2023-05-10T00:47:08;21.63;;;7.63;;
79036;SDS011;68434;59.896;30.474;2023-05-10T00:49:37;17.73;;;7.47;;
79036;SDS011;68434;59.896;30.474;2023-05-10T00:52:06;14.38;;;7.30;;
79036;SDS011;68434;59.896;30.474;2023-05-10T00:54:34;19.77;;;8.60;;
79036;SDS011;68434;59.896;30.474;2023-05-10T00:57:02;20.50;;;8.73;;
79036;SDS011;68434;59.896;30.474;2023-05-10T00:59:30;16.60;;;7.30;;
79036;SDS011;68434;59.896;30.474;2023-05-10T01:01:58;11.75;;;7.35;;
79036;SDS011;68434;59.896;30.474;2023-05-10T01:04:25;14.07;;;6.80;;
79036;SDS011;68434;59.896;30.474;2023-05-10T01:06:55;13.40;;;8.05;;
79036;SDS011;68434;59.896;30.474;2023-05-10T01:09:23;13.80;;;8.02;;
79036;SDS011;68434;59.896;30.474;2023-05-10T01:11:52;17.65;;;8.02;;
79036;SDS011;68434;59.896;30.474;2023-05-10T01:14:22;15.88;;;7.45;;
79036;SDS011;68434;59.896;30.474;2023-05-10T01:16:49;16.65;;;7.38;;
79036;SDS011;68434;59.896;30.474;2023-05-10T01:19:19;16.83;;;7.28;;
79036;SDS011;68434;59.896;30.474;2023-05-10T01:21:53;23.88;;;8.10;;
79036;SDS011;68434;59.896;30.474;2023-05-10T01:27:47;23.40;;;8.82;;
79036;SDS011;68434;59.896;30.474;2023-05-10T01:30:39;17.25;;;7.20;;
79036;SDS011;68434;59.896;30.474;2023-05-10T01:33:23;14.90;;;7.30;;
79036;SDS011;68434;59.896;30.474;2023-05-10T01:35:55;11.18;;;6.85;;
79036;SDS011;68434;59.896;30.474;2023-05-10T01:38:42;18.42;;;6.93;;
79036;SDS011;68434;59.896;30.474;2023-05-10T01:41:17;15.85;;;7.38;;
79036;SDS011;68434;59.896;30.474;2023-05-10T01:43:48;17.35;;;7.07;;
79036;SDS011;68434;59.896;30.474;2023-05-10T01:46:24;16.92;;;9.05;;
79036;SDS011;68434;59.896;30.474;2023-05-10T01:48:57;16.42;;;7.55;;
79036;SDS011;68434;59.896;30.474;2023-05-10T01:51:29;17.92;;;8.45;;
79036;SDS011;68434;59.896;30.474;2023-05-10T01:54:03;18.40;;;7.68;;
79036;SDS011;68434;59.896;30.474;2023-05-10T01:56:33;16.27;;;7.28;;
79036;SDS011;68434;59.896;30.474;2023-05-10T01:59:04;13.48;;;7.63;;
79036;SDS011;68434;59.896;30.474;2023-05-10T02:01:34;16.90;;;7.68;;
79036;SDS011;68434;59.896;30.474;2023-05-10T02:04:06;15.63;;;8.10;;
79036;SDS011;68434;59.896;30.474;2023-05-10T02:06:36;17.00;;;7.80;;
79036;SDS011;68434;59.896;30.474;2023-05-10T02:09:06;20.85;;;9.13;;
79036;SDS011;68434;59.896;30.474;2023-05-10T02:11:36;15.70;;;7.43;;
79036;SDS011;68434;59.896;30.474;2023-05-10T02:14:05;13.05;;;6.90;;
79036;SDS011;68434;59.896;30.474;2023-05-10T02:16:37;14.90;;;7.63;;
79036;SDS011;68434;59.896;30.474;2023-05-10T02:19:07;16.17;;;8.00;;
79036;SDS011;68434;59.896;30.474;2023-05-10T02:21:56;12.10;;;7.03;;
79036;SDS011;68434;59.896;30.474;2023-05-10T02:24:26;19.42;;;7.38;;
79036;SDS011;68434;59.896;30.474;2023-05-10T02:26:55;19.00;;;7.38;;
79036;SDS011;68434;59.896;30.474;2023-05-10T02:29:24;17.23;;;6.60;;
79036;SDS011;68434;59.896;30.474;2023-05-10T02:31:54;16.80;;;7.15;;
79036;SDS011;68434;59.896;30.474;2023-05-10T02:34:26;19.65;;;8.27;;
79036;SDS011;68434;59.896;30.474;2023-05-10T02:36:55;14.07;;;7.22;;
79036;SDS011;68434;59.896;30.474;2023-05-10T02:39:23;15.55;;;7.63;;
79036;SDS011;68434;59.896;30.474;2023-05-10T02:41:54;16.02;;;7.05;;
79036;SDS011;68434;59.896;30.474;2023-05-10T02:44:23;20.52;;;8.82;;
79036;SDS011;68434;59.896;30.474;2023-05-10T02:46:53;15.88;;;7.07;;
79036;SDS011;68434;59.896;30.474;2023-05-10T02:49:23;15.23;;;8.35;;
79036;SDS011;68434;59.896;30.474;2023-05-10T02:51:57;16.15;;;8.05;;
79036;SDS011;68434;59.896;30.474;2023-05-10T02:54:30;24.00;;;8.15;;
79036;SDS011;68434;59.896;30.474;2023-05-10T02:57:00;20.35;;;8.48;;
79036;SDS011;68434;59.896;30.474;2023-05-10T02:59:33;23.63;;;8.30;;
79036;SDS011;68434;59.896;30.474;2023-05-10T03:02:01;18.42;;;8.68;;
79036;SDS011;68434;59.896;30.474;2023-05-10T03:04:31;16.20;;;8.73;;
79036;SDS011;68434;59.896;30.474;2023-05-10T03:06:58;17.63;;;7.75;;
79036;SDS011;68434;59.896;30.474;2023-05-10T03:09:26;19.77;;;8.40;;
79036;SDS011;68434;59.896;30.474;2023-05-10T03:14:33;21.13;;;8.90;;
79036;SDS011;68434;59.896;30.474;2023-05-10T03:17:10;16.33;;;7.85;;
79036;SDS011;68434;59.896;30.474;2023-05-10T03:19:45;20.40;;;8.02;;
79036;SDS011;68434;59.896;30.474;2023-05-10T03:22:21;19.60;;;8.55;;
79036;SDS011;68434;59.896;30.474;2023-05-10T03:24:53;18.30;;;7.45;;
79036;SDS011;68434;59.896;30.474;2023-05-10T03:27:25;14.38;;;7.88;;
79036;SDS011;68434;59.896;30.474;2023-05-10T03:29:55;15.40;;;8.00;;
79036;SDS011;68434;59.896;30.474;2023-05-10T03:32:24;21.23;;;7.63;;
79036;SDS011;68434;59.896;30.474;2023-05-10T03:34:54;20.67;;;7.38;;
79036;SDS011;68434;59.896;30.474;2023-05-10T03:37:23;19.35;;;8.60;;
79036;SDS011;68434;59.896;30.474;2023-05-10T03:39:51;15.27;;;7.88;;
79036;SDS011;68434;59.896;30.474;2023-05-10T03:42:18;16.13;;;7.63;;
79036;SDS011;68434;59.896;30.474;2023-05-10T03:44:46;18.67;;;8.05;;
79036;SDS011;68434;59.896;30.474;2023-05-10T03:47:15;15.00;;;7.45;;
79036;SDS011;68434;59.896;30.474;2023-05-10T03:49:43;20.23;;;8.68;;
79036;SDS011;68434;59.896;30.474;2023-05-10T03:52:13;16.30;;;7.60;;
79036;SDS011;68434;59.896;30.474;2023-05-10T03:54:40;21.20;;;7.90;;
79036;SDS011;68434;59.896;30.474;2023-05-10T03:57:09;15.93;;;8.32;;
79036;SDS011;68434;59.896;30.474;2023-05-10T03:59:36;17.80;;;7.82;;
79036;SDS011;68434;59.896;30.474;2023-05-10T04:02:04;15.55;;;8.27;;
79036;SDS011;68434;59.896;30.474;2023-05-10T04:04:32;15.45;;;7.97;;
79036;SDS011;68434;59.896;30.474;2023-05-10T04:07:00;21.10;;;8.18;;
79036;SDS011;68434;59.896;30.474;2023-05-10T04:09:29;23.60;;;8.88;;
79036;SDS011;68434;59.896;30.474;2023-05-10T04:11:58;23.40;;;8.38;;
79036;SDS011;68434;59.896;30.474;2023-05-10T04:14:30;27.35;;;9.05;;
79036;SDS011;68434;59.896;30.474;2023-05-10T04:16:59;21.17;;;9.60;;
79036;SDS011;68434;59.896;30.474;2023-05-10T04:19:28;20.67;;;9.13;;
79036;SDS011;68434;59.896;30.474;2023-05-10T04:21:57;20.70;;;9.38;;
79036;SDS011;68434;59.896;30.474;2023-05-10T04:24:25;17.75;;;8.63;;
79036;SDS011;68434;59.896;30.474;2023-05-10T04:26:55;16.95;;;7.47;;
79036;SDS011;68434;59.896;30.474;2023-05-10T04:29:23;25.10;;;8.30;;
79036;SDS011;68434;59.896;30.474;2023-05-10T04:31:54;25.60;;;9.32;;
79036;SDS011;68434;59.896;30.474;2023-05-10T04:34:22;16.70;;;8.02;;
79036;SDS011;68434;59.896;30.474;2023-05-10T04:36:50;27.48;;;9.88;;
79036;SDS011;68434;59.896;30.474;2023-05-10T04:39:18;17.58;;;9.07;;
79036;SDS011;68434;59.896;30.474;2023-05-10T04:42:19;16.08;;;8.20;;
79036;SDS011;68434;59.896;30.474;2023-05-10T04:44:47;14.60;;;9.10;;
79036;SDS011;68434;59.896;30.474;2023-05-10T04:47:18;15.75;;;8.65;;
79036;SDS011;68434;59.896;30.474;2023-05-10T04:49:46;20.83;;;9.00;;
79036;SDS011;68434;59.896;30.474;2023-05-10T04:52:13;13.45;;;8.13;;
79036;SDS011;68434;59.896;30.474;2023-05-10T04:54:43;16.33;;;8.95;;
79036;SDS011;68434;59.896;30.474;2023-05-10T04:57:11;17.77;;;9.23;;
79036;SDS011;68434;59.896;30.474;2023-05-10T04:59:40;19.60;;;9.90;;
79036;SDS011;68434;59.896;30.474;2023-05-10T05:02:08;15.55;;;8.30;;
79036;SDS011;68434;59.896;30.474;2023-05-10T05:04:36;18.38;;;9.07;;
79036;SDS011;68434;59.896;30.474;2023-05-10T05:07:04;20.20;;;9.07;;
79036;SDS011;68434;59.896;30.474;2023-05-10T05:09:34;17.13;;;9.48;;
79036;SDS011;68434;59.896;30.474;2023-05-10T05:12:02;18.88;;;9.68;;
79036;SDS011;68434;59.896;30.474;2023-05-10T05:16:59;17.05;;;8.90;;
79036;SDS011;68434;59.896;30.474;2023-05-10T05:19:27;18.95;;;9.40;;
79036;SDS011;68434;59.896;30.474;2023-05-10T05:21:54;15.02;;;8.63;;
79036;SDS011;68434;59.896;30.474;2023-05-10T05:24:22;18.17;;;9.98;;
79036;SDS011;68434;59.896;30.474;2023-05-10T05:26:49;20.00;;;9.20;;
79036;SDS011;68434;59.896;30.474;2023-05-10T05:29:17;14.52;;;8.15;;
79036;SDS011;68434;59.896;30.474;2023-05-10T05:31:45;16.23;;;9.60;;
79036;SDS011;68434;59.896;30.474;2023-05-10T05:34:14;20.17;;;7.95;;
79036;SDS011;68434;59.896;30.474;2023-05-10T05:36:42;13.15;;;7.38;;
79036;SDS011;68434;59.896;30.474;2023-05-10T05:39:09;17.15;;;7.60;;
79036;SDS011;68434;59.896;30.474;2023-05-10T05:41:37;9.98;;;5.28;;
79036;SDS011;68434;59.896;30.474;2023-05-10T05:44:05;7.75;;;5.05;;
79036;SDS011;68434;59.896;30.474;2023-05-10T05:46:35;8.80;;;5.05;;
79036;SDS011;68434;59.896;30.474;2023-05-10T05:49:04;6.72;;;4.60;;
79036;SDS011;68434;59.896;30.474;2023-05-10T05:51:33;8.32;;;4.75;;
79036;SDS011;68434;59.896;30.474;2023-05-10T05:54:01;7.47;;;5.15;;
79036;SDS011;68434;59.896;30.474;2023-05-10T05:56:30;9.27;;;4.82;;
79036;SDS011;68434;59.896;30.474;2023-05-10T05:58:58;7.70;;;4.40;;
79036;SDS011;68434;59.896;30.474;2023-05-10T06:03:53;9.20;;;4.53;;
79036;SDS011;68434;59.896;30.474;2023-05-10T06:06:21;7.95;;;4.45;;
79036;SDS011;68434;59.896;30.474;2023-05-10T06:08:53;7.05;;;4.43;;
79036;SDS011;68434;59.896;30.474;2023-05-10T06:11:21;5.72;;;3.65;;
79036;SDS011;68434;59.896;30.474;2023-05-10T06:13:49;8.18;;;3.47;;
79036;SDS011;68434;59.896;30.474;2023-05-10T06:16:17;8.35;;;3.85;;
79036;SDS011;68434;59.896;30.474;2023-05-10T06:18:44;10.13;;;3.83;;
79036;SDS011;68434;59.896;30.474;2023-05-10T06:23:40;4.45;;;3.25;;
79036;SDS011;68434;59.896;30.474;2023-05-10T06:26:11;7.28;;;3.78;;
79036;SDS011;68434;59.896;30.474;2023-05-10T06:28:39;5.72;;;3.88;;
79036;SDS011;68434;59.896;30.474;2023-05-10T06:31:07;10.60;;;3.80;;
79036;SDS011;68434;59.896;30.474;2023-05-10T06:33:37;7.30;;;3.80;;
79036;SDS011;68434;59.896;30.474;2023-05-10T06:36:07;9.18;;;3.83;;
79036;SDS011;68434;59.896;30.474;2023-05-10T06:38:35;6.60;;;4.07;;
79036;SDS011;68434;59.896;30.474;2023-05-10T06:41:03;9.00;;;4.47;;
79036;SDS011;68434;59.896;30.474;2023-05-10T06:43:32;8.30;;;4.05;;
79036;SDS011;68434;59.896;30.474;2023-05-10T06:46:00;7.82;;;4.70;;
79036;SDS011;68434;59.896;30.474;2023-05-10T06:48:28;6.68;;;4.05;;
79036;SDS011;68434;59.896;30.474;2023-05-10T06:50:55;9.30;;;4.10;;
79036;SDS011;68434;59.896;30.474;2023-05-10T06:53:22;11.70;;;4.80;;
79036;SDS011;68434;59.896;30.474;2023-05-10T06:55:50;6.22;;;3.35;;
79036;SDS011;68434;59.896;30.474;2023-05-10T06:58:18;6.07;;;3.60;;
79036;SDS011;68434;59.896;30.474;2023-05-10T07:00:48;6.70;;;3.75;;
79036;SDS011;68434;59.896;30.474;2023-05-10T07:03:15;8.63;;;3.60;;
79036;SDS011;68434;59.896;30.474;2023-05-10T07:05:43;10.57;;;4.57;;
79036;SDS011;68434;59.896;30.474;2023-05-10T07:08:11;8.20;;;3.78;;
79036;SDS011;68434;59.896;30.474;2023-05-10T07:13:06;6.90;;;3.78;;
79036;SDS011;68434;59.896;30.474;2023-05-10T07:15:35;7.45;;;3.47;;
79036;SDS011;68434;59.896;30.474;2023-05-10T07:18:04;9.27;;;3.50;;
79036;SDS011;68434;59.896;30.474;2023-05-10T07:20:31;5.68;;;3.80;;
79036;SDS011;68434;59.896;30.474;2023-05-10T07:22:59;6.95;;;3.72;;
79036;SDS011;68434;59.896;30.474;2023-05-10T07:25:27;5.03;;;3.35;;
79036;SDS011;68434;59.896;30.474;2023-05-10T07:27:54;5.38;;;3.47;;
79036;SDS011;68434;59.896;30.474;2023-05-10T07:30:22;5.57;;;3.30;;
79036;SDS011;68434;59.896;30.474;2023-05-10T07:32:50;7.38;;;4.18;;
79036;SDS011;68434;59.896;30.474;2023-05-10T07:35:20;8.82;;;4.15;;
79036;SDS011;68434;59.896;30.474;2023-05-10T07:37:47;6.10;;;3.58;;
79036;SDS011;68434;59.896;30.474;2023-05-10T07:40:18;8.80;;;3.67;;
79036;SDS011;68434;59.896;30.474;2023-05-10T07:42:46;6.65;;;3.10;;
79036;SDS011;68434;59.896;30.474;2023-05-10T07:45:14;9.60;;;4.25;;
79036;SDS011;68434;59.896;30.474;2023-05-10T07:47:42;6.78;;;2.90;;
79036;SDS011;68434;59.896;30.474;2023-05-10T07:50:09;7.03;;;3.13;;
79036;SDS011;68434;59.896;30.474;2023-05-10T07:52:39;6.07;;;3.17;;
79036;SDS011;68434;59.896;30.474;2023-05-10T07:55:07;10.35;;;3.33;;
79036;SDS011;68434;59.896;30.474;2023-05-10T07:57:35;6.68;;;3.10;;
79036;SDS011;68434;59.896;30.474;2023-05-10T08:00:03;5.47;;;3.15;;
79036;SDS011;68434;59.896;30.474;2023-05-10T08:02:40;7.28;;;3.50;;
79036;SDS011;68434;59.896;30.474;2023-05-10T08:05:08;4.90;;;3.03;;
79036;SDS011;68434;59.896;30.474;2023-05-10T08:07:36;5.78;;;3.28;;
79036;SDS011;68434;59.896;30.474;2023-05-10T08:10:06;14.65;;;3.50;;
79036;SDS011;68434;59.896;30.474;2023-05-10T08:12:39;10.25;;;2.80;;
79036;SDS011;68434;59.896;30.474;2023-05-10T08:15:10;8.57;;;3.10;;
79036;SDS011;68434;59.896;30.474;2023-05-10T08:17:38;7.38;;;2.78;;
79036;SDS011;68434;59.896;30.474;2023-05-10T08:20:06;5.47;;;2.75;;
79036;SDS011;68434;59.896;30.474;2023-05-10T08:22:38;5.68;;;3.00;;
79036;SDS011;68434;59.896;30.474;2023-05-10T08:25:07;5.65;;;3.10;;
79036;SDS011;68434;59.896;30.474;2023-05-10T08:27:36;5.15;;;2.90;;
79036;SDS011;68434;59.896;30.474;2023-05-10T08:30:06;4.68;;;2.65;;
79036;SDS011;68434;59.896;30.474;2023-05-10T08:32:34;5.03;;;3.15;;
79036;SDS011;68434;59.896;30.474;2023-05-10T08:35:06;4.55;;;2.72;;
79036;SDS011;68434;59.896;30.474;2023-05-10T08:37:33;8.70;;;2.95;;
79036;SDS011;68434;59.896;30.474;2023-05-10T08:40:04;8.20;;;2.63;;
79036;SDS011;68434;59.896;30.474;2023-05-10T08:42:34;6.95;;;2.88;;
79036;SDS011;68434;59.896;30.474;2023-05-10T08:45:07;4.45;;;2.50;;
79036;SDS011;68434;59.896;30.474;2023-05-10T08:47:36;5.43;;;2.50;;
79036;SDS011;68434;59.896;30.474;2023-05-10T08:50:06;6.72;;;2.67;;
79036;SDS011;68434;59.896;30.474;2023-05-10T08:52:35;5.35;;;3.03;;
79036;SDS011;68434;59.896;30.474;2023-05-10T08:55:08;3.55;;;2.30;;
79036;SDS011;68434;59.896;30.474;2023-05-10T08:57:37;6.10;;;2.60;;
79036;SDS011;68434;59.896;30.474;2023-05-10T09:00:05;7.40;;;3.10;;
79036;SDS011;68434;59.896;30.474;2023-05-10T09:02:35;7.72;;;3.22;;
79036;SDS011;68434;59.896;30.474;2023-05-10T09:05:05;3.67;;;2.35;;
79036;SDS011;68434;59.896;30.474;2023-05-10T09:07:33;7.35;;;3.25;;
79036;SDS011;68434;59.896;30.474;2023-05-10T09:10:01;4.65;;;2.78;;
79036;SDS011;68434;59.896;30.474;2023-05-10T09:12:29;6.47;;;2.80;;
79036;SDS011;68434;59.896;30.474;2023-05-10T09:15:00;4.50;;;2.25;;
79036;SDS011;68434;59.896;30.474;2023-05-10T09:17:31;4.82;;;2.90;;
79036;SDS011;68434;59.896;30.474;2023-05-10T09:19:58;5.80;;;2.85;;
79036;SDS011;68434;59.896;30.474;2023-05-10T09:22:26;5.53;;;2.70;;
79036;SDS011;68434;59.896;30.474;2023-05-10T09:25:04;7.03;;;2.95;;
79036;SDS011;68434;59.896;30.474;2023-05-10T09:27:33;7.68;;;2.80;;
79036;SDS011;68434;59.896;30.474;2023-05-10T09:30:02;5.65;;;2.50;;
79036;SDS011;68434;59.896;30.474;2023-05-10T09:32:36;6.25;;;2.90;;
79036;SDS011;68434;59.896;30.474;2023-05-10T09:35:08;8.15;;;3.22;;
79036;SDS011;68434;59.896;30.474;2023-05-10T09:37:38;5.38;;;3.13;;
79036;SDS011;68434;59.896;30.474;2023-05-10T09:40:10;7.35;;;2.75;;
79036;SDS011;68434;59.896;30.474;2023-05-10T09:42:40;3.85;;;2.53;;
79036;SDS011;68434;59.896;30.474;2023-05-10T09:45:11;4.07;;;2.40;;
79036;SDS011;68434;59.896;30.474;2023-05-10T09:47:39;7.63;;;2.80;;
79036;SDS011;68434;59.896;30.474;2023-05-10T09:50:08;6.65;;;2.97;;
79036;SDS011;68434;59.896;30.474;2023-05-10T09:52:46;5.20;;;2.70;;
79036;SDS011;68434;59.896;30.474;2023-05-10T09:55:14;5.93;;;2.38;;
79036;SDS011;68434;59.896;30.474;2023-05-10T09:57:45;4.75;;;2.50;;
79036;SDS011;68434;59.896;30.474;2023-05-10T10:00:19;8.05;;;2.88;;
79036;SDS011;68434;59.896;30.474;2023-05-10T10:02:48;5.68;;;2.40;;
79036;SDS011;68434;59.896;30.474;2023-05-10T10:05:27;4.10;;;2.70;;
79036;SDS011;68434;59.896;30.474;2023-05-10T10:07:56;4.05;;;3.03;;
79036;SDS011;68434;59.896;30.474;2023-05-10T10:10:26;4.63;;;2.67;;
79036;SDS011;68434;59.896;30.474;2023-05-10T10:12:55;4.75;;;3.10;;
79036;SDS011;68434;59.896;30.474;2023-05-10T10:15:25;4.65;;;2.67;;
79036;SDS011;68434;59.896;30.474;2023-05-10T10:17:56;6.82;;;2.65;;
79036;SDS011;68434;59.896;30.474;2023-05-10T10:20:23;5.88;;;2.80;;
79036;SDS011;68434;59.896;30.474;2023-05-10T10:22:53;5.38;;;2.78;;
79036;SDS011;68434;59.896;30.474;2023-05-10T10:25:21;5.40;;;2.65;;
79036;SDS011;68434;59.896;30.474;2023-05-10T10:27:55;7.60;;;2.90;;
79036;SDS011;68434;59.896;30.474;2023-05-10T10:30:37;15.05;;;3.58;;
79036;SDS011;68434;59.896;30.474;2023-05-10T10:38:37;4.57;;;2.67;;
79036;SDS011;68434;59.896;30.474;2023-05-10T10:41:29;4.65;;;2.65;;
79036;SDS011;68434;59.896;30.474;2023-05-10T10:47:03;8.07;;;2.83;;
79036;SDS011;68434;59.896;30.474;2023-05-10T10:49:37;7.53;;;3.10;;
79036;SDS011;68434;59.896;30.474;2023-05-10T10:52:14;8.50;;;2.60;;
79036;SDS011;68434;59.896;30.474;2023-05-10T10:54:49;6.68;;;2.78;;
79036;SDS011;68434;59.896;30.474;2023-05-10T10:57:19;6.55;;;3.00;;
79036;SDS011;68434;59.896;30.474;2023-05-10T10:59:49;3.90;;;2.70;;
79036;SDS011;68434;59.896;30.474;2023-05-10T11:05:24;5.63;;;2.97;;
79036;SDS011;68434;59.896;30.474;2023-05-10T11:08:06;7.43;;;2.88;;
79036;SDS011;68434;59.896;30.474;2023-05-10T11:10:35;4.65;;;2.65;;
79036;SDS011;68434;59.896;30.474;2023-05-10T11:13:04;7.35;;;2.53;;
79036;SDS011;68434;59.896;30.474;2023-05-10T11:15:34;6.68;;;3.17;;
79036;SDS011;68434;59.896;30.474;2023-05-10T11:20:58;5.63;;;2.60;;
79036;SDS011;68434;59.896;30.474;2023-05-10T11:23:31;4.50;;;2.55;;
79036;SDS011;68434;59.896;30.474;2023-05-10T11:26:17;7.90;;;2.75;;
79036;SDS011;68434;59.896;30.474;2023-05-10T11:28:48;5.25;;;2.40;;
79036;SDS011;68434;59.896;30.474;2023-05-10T11:31:17;6.45;;;2.50;;
79036;SDS011;68434;59.896;30.474;2023-05-10T11:33:47;5.22;;;2.20;;
79036;SDS011;68434;59.896;30.474;2023-05-10T11:36:16;5.30;;;2.50;;
79036;SDS011;68434;59.896;30.474;2023-05-10T11:38:46;5.60;;;2.53;;
79036;SDS011;68434;59.896;30.474;2023-05-10T11:41:15;4.13;;;2.25;;
79036;SDS011;68434;59.896;30.474;2023-05-10T11:43:45;3.70;;;2.33;;
79036;SDS011;68434;59.896;30.474;2023-05-10T11:46:14;3.53;;;2.03;;
79036;SDS011;68434;59.896;30.474;2023-05-10T11:48:43;5.07;;;2.03;;
79036;SDS011;68434;59.896;30.474;2023-05-10T11:51:12;6.35;;;2.50;;
79036;SDS011;68434;59.896;30.474;2023-05-10T11:53:41;4.70;;;2.35;;
79036;SDS011;68434;59.896;30.474;2023-05-10T11:56:09;5.72;;;2.53;;
79036;SDS011;68434;59.896;30.474;2023-05-10T11:58:37;5.57;;;2.85;;
79036;SDS011;68434;59.896;30.474;2023-05-10T12:01:06;4.90;;;2.47;;
79036;SDS011;68434;59.896;30.474;2023-05-10T12:03:35;6.90;;;2.55;;
79036;SDS011;68434;59.896;30.474;2023-05-10T12:06:05;7.32;;;2.67;;
79036;SDS011;68434;59.896;30.474;2023-05-10T12:08:36;4.70;;;2.47;;
79036;SDS011;68434;59.896;30.474;2023-05-10T12:11:04;4.05;;;2.97;;
79036;SDS011;68434;59.896;30.474;2023-05-10T12:13:36;4.72;;;2.72;;
79036;SDS011;68434;59.896;30.474;2023-05-10T12:16:12;6.10;;;2.78;;
79036;SDS011;68434;59.896;30.474;2023-05-10T12:18:41;4.30;;;2.30;;
79036;SDS011;68434;59.896;30.474;2023-05-10T12:21:09;5.72;;;2.15;;
79036;SDS011;68434;59.896;30.474;2023-05-10T12:23:39;6.10;;;2.45;;
79036;SDS011;68434;59.896;30.474;2023-05-10T12:26:08;4.25;;;2.17;;
79036;SDS011;68434;59.896;30.474;2023-05-10T12:28:37;5.15;;;2.42;;
79036;SDS011;68434;59.896;30.474;2023-05-10T12:31:05;9.07;;;2.58;;
79036;SDS011;68434;59.896;30.474;2023-05-10T12:33:37;4.55;;;2.13;;
79036;SDS011;68434;59.896;30.474;2023-05-10T12:36:07;4.88;;;2.53;;
79036;SDS011;68434;59.896;30.474;2023-05-10T12:41:37;3.88;;;2.45;;
79036;SDS011;68434;59.896;30.474;2023-05-10T12:44:05;6.65;;;3.00;;
79036;SDS011;68434;59.896;30.474;2023-05-10T12:46:32;4.00;;;2.30;;
79036;SDS011;68434;59.896;30.474;2023-05-10T12:49:00;5.88;;;2.28;;
79036;SDS011;68434;59.896;30.474;2023-05-10T12:51:27;3.72;;;2.17;;
79036;SDS011;68434;59.896;30.474;2023-05-10T12:53:56;8.15;;;2.63;;
79036;SDS011;68434;59.896;30.474;2023-05-10T12:56:24;8.07;;;2.58;;
79036;SDS011;68434;59.896;30.474;2023-05-10T12:58:53;4.25;;;2.40;;
79036;SDS011;68434;59.896;30.474;2023-05-10T13:01:23;5.63;;;2.60;;
79036;SDS011;68434;59.896;30.474;2023-05-10T13:03:51;4.75;;;2.30;;
79036;SDS011;68434;59.896;30.474;2023-05-10T13:06:19;5.80;;;2.47;;
79036;SDS011;68434;59.896;30.474;2023-05-10T13:08:46;6.47;;;2.80;;
79036;SDS011;68434;59.896;30.474;2023-05-10T13:11:14;4.97;;;2.60;;
79036;SDS011;68434;59.896;30.474;2023-05-10T13:13:47;6.85;;;2.38;;
79036;SDS011;68434;59.896;30.474;2023-05-10T13:16:16;7.05;;;2.30;;
79036;SDS011;68434;59.896;30.474;2023-05-10T13:18:46;4.47;;;2.40;;
79036;SDS011;68434;59.896;30.474;2023-05-10T13:21:14;5.93;;;2.50;;
79036;SDS011;68434;59.896;30.474;2023-05-10T13:23:42;5.70;;;2.53;;
79036;SDS011;68434;59.896;30.474;2023-05-10T13:26:10;8.20;;;2.70;;
79036;SDS011;68434;59.896;30.474;2023-05-10T13:28:37;4.95;;;2.50;;
79036;SDS011;68434;59.896;30.474;2023-05-10T13:31:06;4.07;;;2.45;;
79036;SDS011;68434;59.896;30.474;2023-05-10T13:36:03;5.38;;;2.40;;
79036;SDS011;68434;59.896;30.474;2023-05-10T13:38:31;3.78;;;2.20;;
79036;SDS011;68434;59.896;30.474;2023-05-10T13:40:58;5.10;;;2.20;;
79036;SDS011;68434;59.896;30.474;2023-05-10T13:43:26;6.70;;;2.35;;
79036;SDS011;68434;59.896;30.474;2023-05-10T13:45:54;3.90;;;2.92;;
79036;SDS011;68434;59.896;30.474;2023-05-10T13:48:22;6.13;;;2.60;;
79036;SDS011;68434;59.896;30.474;2023-05-10T13:50:52;3.83;;;2.20;;
79036;SDS011;68434;59.896;30.474;2023-05-10T13:53:19;3.90;;;2.60;;
79036;SDS011;68434;59.896;30.474;2023-05-10T13:55:47;6.55;;;2.67;;
79036;SDS011;68434;59.896;30.474;2023-05-10T13:58:15;8.55;;;2.80;;
79036;SDS011;68434;59.896;30.474;2023-05-10T14:00:42;7.65;;;2.53;;
79036;SDS011;68434;59.896;30.474;2023-05-10T14:03:10;5.25;;;2.70;;
79036;SDS011;68434;59.896;30.474;2023-05-10T14:05:39;4.30;;;2.53;;
79036;SDS011;68434;59.896;30.474;2023-05-10T14:08:08;5.15;;;2.40;;
79036;SDS011;68434;59.896;30.474;2023-05-10T14:10:38;5.55;;;2.80;;
79036;SDS011;68434;59.896;30.474;2023-05-10T14:13:06;6.18;;;2.28;;
79036;SDS011;68434;59.896;30.474;2023-05-10T14:15:34;5.68;;;2.40;;
79036;SDS011;68434;59.896;30.474;2023-05-10T14:18:01;4.78;;;2.63;;
79036;SDS011;68434;59.896;30.474;2023-05-10T14:20:29;4.68;;;2.55;;
79036;SDS011;68434;59.896;30.474;2023-05-10T14:22:59;5.28;;;2.60;;
79036;SDS011;68434;59.896;30.474;2023-05-10T14:25:28;5.70;;;2.72;;
79036;SDS011;68434;59.896;30.474;2023-05-10T14:27:56;6.47;;;2.83;;
79036;SDS011;68434;59.896;30.474;2023-05-10T14:30:24;4.45;;;2.60;;
79036;SDS011;68434;59.896;30.474;2023-05-10T14:32:51;4.78;;;2.30;;
79036;SDS011;68434;59.896;30.474;2023-05-10T14:35:19;4.85;;;2.40;;
79036;SDS011;68434;59.896;30.474;2023-05-10T14:37:47;6.10;;;2.50;;
79036;SDS011;68434;59.896;30.474;2023-05-10T14:40:15;5.18;;;2.55;;
79036;SDS011;68434;59.896;30.474;2023-05-10T14:42:44;8.15;;;3.00;;
79036;SDS011;68434;59.896;30.474;2023-05-10T14:45:12;4.88;;;2.53;;
79036;SDS011;68434;59.896;30.474;2023-05-10T14:47:39;5.03;;;2.50;;
79036;SDS011;68434;59.896;30.474;2023-05-10T14:50:07;7.38;;;2.30;;
79036;SDS011;68434;59.896;30.474;2023-05-10T14:52:35;8.10;;;2.78;;
79036;SDS011;68434;59.896;30.474;2023-05-10T14:55:03;7.97;;;2.70;;
79036;SDS011;68434;59.896;30.474;2023-05-10T14:57:31;7.93;;;2.38;;
79036;SDS011;68434;59.896;30.474;2023-05-10T15:00:00;4.70;;;1.90;;
79036;SDS011;68434;59.896;30.474;2023-05-10T15:02:33;8.02;;;2.53;;
79036;SDS011;68434;59.896;30.474;2023-05-10T15:05:01;6.30;;;2.55;;
79036;SDS011;68434;59.896;30.474;2023-05-10T15:07:29;4.03;;;2.50;;
79036;SDS011;68434;59.896;30.474;2023-05-10T15:09:57;4.93;;;2.45;;
79036;SDS011;68434;59.896;30.474;2023-05-10T15:12:25;4.20;;;2.67;;
79036;SDS011;68434;59.896;30.474;2023-05-10T15:14:52;4.90;;;2.67;;
79036;SDS011;68434;59.896;30.474;2023-05-10T15:17:22;5.95;;;2.40;;